Eldridge, IA

3:34 AM CDT on June 23, 2017 (GMT -0500)
Ridgeview | | Change Station

Elev 735 ft 41.59 °N, 90.60 °W | Updated 1 second ago

Thunderstorm
Thunderstorm
72.6 °F
Feels Like 72.6 °F
N
7.0
Wind Variable Wind from SW

Today
High -- | Low -- °F
--% Chance of Precip.
Yesterday
High -- | Low -- °F
Precip. -- in
Pressure 29.68 in
Visibility 2.5 miles
Clouds Scattered Clouds 1300 ft
Mostly Cloudy 2100 ft
Overcast 4300 ft
Dew Point 72 °F
Humidity 98%
Rainfall 0.60 in
Snow Depth Not available.
5:28 AM 8:40 PM
Waning Crescent, 1% visible
SPECI KDVN 230826Z AUTO 31018G26KT 2 1/2SM TSRA BR SCT013 BKN021 OVC043 21/19 A2968 RMK AO2 PK WND 31026/0824 LTG DSNT ALQDS RAB01 TSB0756 P0041 T02110194
Pressure 29.68 in
Visibility 2.5 miles
Clouds Scattered Clouds 1300 ft
Mostly Cloudy 2100 ft
Overcast 4300 ft
Dew Point 72 °F
Humidity 98%
Rainfall 0.60 in
Snow Depth Not available.
5:28 AM 8:40 PM
Waning Crescent, 1% visible
SPECI KDVN 230826Z AUTO 31018G26KT 2 1/2SM TSRA BR SCT013 BKN021 OVC043 21/19 A2968 RMK AO2 PK WND 31026/0824 LTG DSNT ALQDS RAB01 TSB0756 P0041 T02110194

Get Severe Weather Alerts

Thanks for signing up!

Be on the lookout for a verification email in your inbox.

You'll start receiving the daily forecast at 6 AM.

×

10-Day Weather Forecast

Almanac

Astronomy

Jun. 23, 2017 Rise Set
Actual Time
Civil Twilight
Nautical Twilight
Astronomical Twilight
Moon
Length of Visible Light
Length of Day
Tomorrow will be .
, % of the Moon is Illuminated

Today's Extremes

State Highs State Lows

Community

WunderPhotos

Category 6

Welcome to Category 6. This is the collective home for Weather Underground's featured writeups by Dr. Jeff Masters (right), Bob Henson (left), Chris Burt, and other regular contributors.

Nearby

Air Quality

  Air Quality AQ Index Pollutant
Not available.

Snow Depth

Station Depth Elevation

Earthquake Activity

City Distance Mag. Time & Date
Minimum magnitude displayed is 2.5.

Coastal Water Temperatures

Place Temperature

Stations

Nearby Weather Stations

Station Location Temp. Windchill Dew Point Humidity Wind Precip. Elev Updated Type
                   

Watches & Warnings

There are currently no watches in effect.